• Join FlightAware (Why Join?)
  • Login
  • US Flag 
04:44AM EST


 

Airport Tracker/Info


-or-


 

Live Flight TrackerFlight Track Log ✈ N67511 ✈ 16-Aug-2013 ✈ KGLR - KART

Flight Track Log - Related Links

Times and Time Zones

All times are in EDT time to prevent confusion due to time zone crossing. See the N67511 flight status page for this flight to view local times or setup timezone preferences in your user account.

Time Position Orientation Groundspeed Altitude Reporting Facility
EDT Latitude Longitude Course Direction KTS MPH feet Rate Location/Type
05:06PM 44.9881 -84.5581 97° East 172 198 3,400  Level Minneapolis Center
05:07PM 44.9842 -84.4947 95° East 164 189 4,600 1,140 Climbing Minneapolis Center
05:08PM 44.9786 -84.4247 96° East 169 194 5,800 1,080 Climbing Minneapolis Center
05:09PM 44.9725 -84.3489 96° East 179 206 6,900 960 Climbing Minneapolis Center
05:10PM 44.9692 -84.2753 98° East  Level FlightAware Approximate
05:10PM 44.9667 -84.2772 97° East 184 212 7,900  Level Minneapolis Center
05:11PM 44.9608 -84.1961 96° East 193 222 9,000 960 Climbing Minneapolis Center
05:12PM 44.9550 -84.1228 96° East 191 220 10,000 960 Climbing Minneapolis Center
05:13PM 44.9481 -84.0467 97° East 186 214 11,100 960 Climbing Minneapolis Center
05:14PM 44.9417 -83.9769 97° East 182 209 12,100 960 Climbing Minneapolis Center
05:15PM 44.9339 -83.9017 98° East 182 209 13,100 960 Climbing Minneapolis Center
05:16PM 44.9275 -83.8122 96° East 185 213 14,300 960 Climbing Minneapolis Center
05:17PM 44.9206 -83.7378 97° East 180 207 15,300 840 Climbing Minneapolis Center
05:18PM 44.9150 -83.6664 96° East 185 213 16,100 720 Climbing Minneapolis Center
05:20PM 44.9083 -83.5889 97° East 187 215 16,900 660 Climbing Minneapolis Center
05:21PM 44.9019 -83.5169 97° East 189 217 17,500 540 Climbing Minneapolis Center
05:22PM 44.8958 -83.4372 96° East 192 221 18,100 540 Climbing Minneapolis Center
05:23PM 44.8892 -83.3603 97° East 190 219 18,700 540 Climbing Minneapolis Center
05:24PM 44.8842 -83.2872 95° East 187 215 19,300 600 Climbing Minneapolis Center
05:25PM 44.8792 -83.2125 95° East 190 219 20,000 600 Climbing Minneapolis Center
05:26PM 44.8717 -83.1392 98° East 190 219 20,600 480 Climbing Minneapolis Center
05:27PM 44.8639 -83.0639 98° East 191 220 21,000 180 Climbing Minneapolis Center
05:28PM 44.8547 -82.9622 97° East 205 236 21,000  Level Minneapolis Center
05:29PM 44.8481 -82.8739 96° East 217 250 21,000  Level Minneapolis Center
05:30PM 44.8392 -82.7844 98° East 226 260 21,000  Level Minneapolis Center
05:31PM 44.8297 -82.6936 98° East 231 266 21,000  Level Minneapolis Center
05:32PM 44.8167 -82.6000 101° East 230 265 21,000  Level Toronto Center
05:33PM 44.8000 -82.5000 103° East 230 265 21,000  Level Toronto Center
05:34PM 44.7833 -82.4000 103° East 240 276 21,000  Level Toronto Center
05:35PM 44.7833 -82.3167 90° East 230 265 21,000  Level Toronto Center
05:36PM 44.7667 -82.2167 103° East 240 276 21,000  Level Toronto Center
05:37PM 44.7500 -82.1167 103° East 240 276 21,000  Level Toronto Center
05:38PM 44.7500 -82.0333 90° East 240 276 21,000  Level Toronto Center
05:39PM 44.7333 -81.9500 106° East 240 276 21,000  Level Toronto Center
05:40PM 44.7333 -81.8667 90° East 240 276 21,000  Level Toronto Center
05:41PM 44.7333 -81.7667 90° East 240 276 21,000  Level Toronto Center
05:42PM 44.7167 -81.6667 103° East 240 276 21,000  Level Toronto Center
05:43PM 44.7000 -81.5833 106° East 240 276 21,000  Level Toronto Center
05:44PM 44.7000 -81.4833 90° East 240 276 21,000  Level Toronto Center
05:45PM 44.6833 -81.3833 103° East 240 276 21,000  Level Toronto Center
05:46PM 44.6667 -81.3167 109° East 240 276 21,000  Level Toronto Center
05:47PM 44.6667 -81.2333 90° East 240 276 21,000  Level Toronto Center
05:48PM 44.6500 -81.1333 103° East 240 276 21,000  Level Toronto Center
05:49PM 44.6333 -81.0333 103° East 240 276 21,000  Level Toronto Center
05:50PM 44.6333 -80.9500 90° East 240 276 21,000  Level Toronto Center
05:51PM 44.6167 -80.8500 103° East 240 276 21,000  Level Toronto Center
05:52PM 44.6167 -80.7500 90° East 240 276 21,000  Level Toronto Center
05:53PM 44.6167 -80.6667 90° East 240 276 21,000  Level Toronto Center
05:54PM 44.6000 -80.5667 103° East 240 276 21,000  Level Toronto Center
05:55PM 44.5833 -80.4833 106° East 240 276 21,000  Level Toronto Center
05:56PM 44.5833 -80.3833 90° East 240 276 21,000  Level Toronto Center
05:57PM 44.5667 -80.2833 103° East 240 276 21,000  Level Toronto Center
05:58PM 44.5500 -80.2000 106° East 240 276 21,000  Level Toronto Center
05:59PM 44.5500 -80.1000 90° East 240 276 21,000  Level Toronto Center
06:00PM 44.5333 -80.0000 103° East 250 288 21,000  Level Toronto Center
06:01PM 44.5167 -79.9167 106° East 240 276 21,000  Level Toronto Center
06:02PM 44.5167 -79.8167 90° East 240 276 21,000  Level Toronto Center
06:03PM 44.5000 -79.7333 106° East 240 276 21,000  Level Toronto Center
06:04PM 44.4833 -79.6333 103° East 240 276 21,000  Level Toronto Center
06:05PM 44.4833 -79.5333 90° East 240 276 21,000  Level Toronto Center
06:06PM 44.4667 -79.4500 106° East 240 276 21,000  Level Toronto Center
06:07PM 44.4500 -79.3500 103° East 240 276 21,000  Level Toronto Center
06:08PM 44.4333 -79.2667 106° East 240 276 21,000  Level Toronto Center
06:09PM 44.4333 -79.1667 90° East 240 276 21,000  Level Toronto Center
06:10PM 44.4167 -79.0667 103° East 240 276 21,000  Level Toronto Center
06:11PM 44.4000 -78.9833 106° East 240 276 21,000  Level Toronto Center
06:12PM 44.4000 -78.9167 90° East 240 276 21,000  Level Toronto Center
06:13PM 44.3833 -78.8000 101° East 240 276 21,000  Level Toronto Center
06:14PM 44.3667 -78.7000 103° East 240 276 21,000  Level Toronto Center
06:15PM 44.3667 -78.6000 90° East 240 276 21,000  Level Toronto Center
06:16PM 44.3500 -78.5167 106° East 240 276 21,000  Level Toronto Center
06:17PM 44.3167 -78.4167 115° Southeast 240 276 21,000  Level Toronto Center
06:18PM 44.3167 -78.3333 90° East 240 276 21,000  Level Toronto Center
06:19PM 44.3000 -78.2333 103° East 240 276 21,000  Level Toronto Center
06:20PM 44.2833 -78.1500 106° East 240 276 21,000  Level Toronto Center
06:21PM 44.2833 -78.0500 90° East 250 288 21,000  Level Toronto Center
06:22PM 44.2667 -77.9500 103° East 240 276 21,000  Level Toronto Center
06:23PM 44.2500 -77.8667 106° East 240 276 21,000  Level Toronto Center
06:24PM 44.2500 -77.7667 90° East 250 288 21,000 -120 Level Toronto Center
06:25PM 44.2333 -77.6833 106° East 250 288 20,800 -660 Descending Toronto Center
06:26PM 44.2167 -77.5833 103° East 260 299 19,700 -1,200 Descending Toronto Center
06:27PM 44.2000 -77.4667 101° East 280 322 18,500 -1,140 Descending Toronto Center
06:28PM 44.1833 -77.3500 101° East 280 322 17,500 -1,140 Descending Toronto Center
06:29PM 44.1667 -77.2667 106° East 280 322 16,300 -1,260 Descending Toronto Center
06:30PM 44.1500 -77.1500 101° East 280 322 15,000 -1,320 Descending Toronto Center
06:31PM 44.1333 -77.0500 103° East 270 311 13,700 -1,260 Descending Toronto Center
06:32PM 44.1333 -76.9667 90° East 260 299 12,500 -1,260 Descending Toronto Center
06:33PM 44.1167 -76.8667 103° East 250 288 11,200 -1,380 Descending Toronto Center
06:34PM 44.1000 -76.7833 106° East 240 276 9,800 -1,260 Descending Toronto Center
06:35PM 44.0833 -76.6833 103° East 230 265 8,700 -1,080 Descending Toronto Center
06:36PM 44.0667 -76.6000 106° East 220 253 7,700 -960 Descending Toronto Center
06:37PM 44.0753 -76.5528 76° East 227 261 6,900 -780 Descending Boston Center
06:38PM 44.0614 -76.4708 103° East 222 255 6,200 -480 Descending Boston Center
06:39PM 44.0517 -76.3894 99° East 222 255 6,000 -120 Descending Boston Center
06:40PM 44.0378 -76.3106 104° East 222 255 6,000 -60 Level Boston Center
06:41PM 44.0258 -76.2289 101° East 222 255 5,900 -720 Descending Boston Center
06:42PM 44.0117 -76.1500 104° East 217 250 4,600 -1,320 Descending Boston Center
06:43PM 43.9936 -76.0681 107° East 210 242 3,300 -1,380 Descending Boston Center
06:44PM 43.9731 -75.9947 111° Southeast 154 177 1,500 -1,020 Descending Boston Center
06:45PM 44.0025 -75.9819 17° North 118 136 1,000 -540 Descending Boston Center
06:49PM 43.9833 -76.0167 245° Southwest  Level FlightAware Approximate
06:56PM 43.9919 -76.0207 245° Southwest  Level Estimated
06:57PM 43.9919 -76.0207 245° Southwest  Level Estimated
06:58PM 43.9919 -76.0207 245° Southwest  Level Estimated
06:59PM 43.9919 -76.0207 245° Southwest  Level Estimated
07:00PM 43.9919 -76.0207 245° Southwest  Level Estimated